KPGA/PGA METAR and TAF weather

Enter ICAO airport designator
Station Type Date Time Source
KPGA METAR 2020/01/21 14:53 UTC NOAA

KPGA 211453Z AUTO 00000KT 10SM BKN036 BKN070 OVC100 02/M02 A3012 RMK AO2 SNE04 SLP199 P0000 60001 T00221017 55000 TSNO


Station Type Date Time Source
KPGA Decoded METAR 2020/01/21 14:53 UTC NOAA

PAGE MUNICIPAL AIRPORT, AZ, United States (KPGA) 36-56N 111-27W 1307M
Jan 21, 2020 - 09:53 AM EST / 2020.01.21 1453 UTC
Wind: Calm:0
Visibility: 10 mile(s):0
Sky conditions: overcast
Precipitation last hour: A trace
Temperature: 36.0 F (2.2 C)
Dew Point: 28.9 F (-1.7 C)
Relative Humidity: 75%
Pressure (altimeter): 30.12 in. Hg (1019 hPa)
Pressure tendency: 0.00 inches (0.0 hPa) lower than three hours ago
ob: KPGA 211453Z AUTO 00000KT 10SM BKN036 BKN070 OVC100 02/M02 A3012 RMK AO2 SNE04 SLP199 P0000 60001 T00221017 55000 TSNO
cycle: 15

Station Type Date Time Source
KPGA TAF 2020/01/21 14:12 UTC NOAA

TAF
AMD KPGA 211411Z 2114/2212 VRB05KT P6SM BKN050
TEMPO 2114/2116 4SM -SHSNRA BR OVC035
FM211600 VRB05KT 6SM -SHRASN BKN025 OVC035
FM212000 VRB05KT P6SM BKN040

Example: see airport list